Time;durP1;ratioP1;P1;durP2;ratioP2;P2;SDS_P1;SDS_P2;PMS_P1;PMS_P2;Temp;Humidity;BMP_temperature;BMP_pressure;BME280_temperature;BME280_humidity;BME280_pressure;Samples;Min_cycle;Max_cycle;Signal;HPM_P1;HPM_P2
2024/01/13 00:00:31;;;;;;;14.18;8.35;;;;;;;;;;7355199;19;20300;-81
2024/01/13 00:02:56;;;;;;;14.88;8.63;;;;;;;;;;7352189;19;20616;-78
2024/01/13 00:05:21;;;;;;;14.63;9.43;;;;;;;;;;7363342;19;20288;-76
2024/01/13 00:07:47;;;;;;;16.45;9.60;;;;;;;;;;7354172;19;20096;-76
2024/01/13 00:10:12;;;;;;;14.75;9.23;;;;;;;;;;7359829;19;20279;-82
2024/01/13 00:12:37;;;;;;;21.25;13.65;;;;;;;;;;7363606;19;20171;-79
2024/01/13 00:15:02;;;;;;;22.13;13.75;;;;;;;;;;7359143;19;20290;-79
2024/01/13 00:17:27;;;;;;;24.33;14.90;;;;;;;;;;7331403;19;21893;-79
2024/01/13 00:19:52;;;;;;;19.73;11.82;;;;;;;;;;7356198;19;20015;-80
2024/01/13 00:22:18;;;;;;;19.20;11.88;;;;;;;;;;7367462;19;20138;-76
2024/01/13 00:24:43;;;;;;;23.95;14.52;;;;;;;;;;7365663;19;20295;-81
2024/01/13 00:27:08;;;;;;;25.55;16.08;;;;;;;;;;7360713;19;20280;-81
2024/01/13 00:29:33;;;;;;;26.92;16.23;;;;;;;;;;7360823;19;20453;-77
2024/01/13 00:31:58;;;;;;;26.92;16.10;;;;;;;;;;7335899;19;20038;-81
2024/01/13 00:34:24;;;;;;;29.05;16.77;;;;;;;;;;7359278;19;20006;-78
2024/01/13 00:36:49;;;;;;;28.23;18.02;;;;;;;;;;7362868;19;20282;-77
2024/01/13 00:39:14;;;;;;;29.05;18.00;;;;;;;;;;7367326;19;20367;-79
2024/01/13 00:41:39;;;;;;;27.58;18.05;;;;;;;;;;7365154;19;21237;-82
2024/01/13 00:44:04;;;;;;;29.05;17.95;;;;;;;;;;7361548;19;20886;-78
2024/01/13 00:46:30;;;;;;;33.65;19.48;;;;;;;;;;7359108;19;20145;-76
2024/01/13 00:48:55;;;;;;;28.63;18.10;;;;;;;;;;7340540;19;20090;-81
2024/01/13 00:51:20;;;;;;;32.70;19.70;;;;;;;;;;7364461;19;20494;-78
2024/01/13 00:53:45;;;;;;;34.15;20.70;;;;;;;;;;7343980;19;20298;-81
2024/01/13 00:56:10;;;;;;;33.63;20.30;;;;;;;;;;7347028;19;22312;-76
2024/01/13 00:58:36;;;;;;;34.47;19.70;;;;;;;;;;7361236;19;20878;-77
2024/01/13 01:01:03;;;;;;;32.63;19.80;;;;;;;;;;7355271;19;20002;-80
2024/01/13 01:03:28;;;;;;;38.53;20.58;;;;;;;;;;7356567;19;20018;-77
2024/01/13 01:05:54;;;;;;;33.63;21.27;;;;;;;;;;7362353;19;20379;-78
2024/01/13 01:08:19;;;;;;;33.72;20.95;;;;;;;;;;7360525;19;20027;-76
2024/01/13 01:10:44;;;;;;;37.65;21.88;;;;;;;;;;7364150;19;20014;-77
2024/01/13 01:13:09;;;;;;;36.25;21.25;;;;;;;;;;7356681;19;20023;-78
2024/01/13 01:15:34;;;;;;;38.00;21.38;;;;;;;;;;7360401;19;20271;-81
2024/01/13 01:17:59;;;;;;;33.80;21.20;;;;;;;;;;7349128;19;20654;-78
2024/01/13 01:20:24;;;;;;;34.42;21.23;;;;;;;;;;7367515;19;20278;-79
2024/01/13 01:22:50;;;;;;;37.73;23.57;;;;;;;;;;7357144;19;20271;-80
2024/01/13 01:25:15;;;;;;;37.38;23.77;;;;;;;;;;7359807;19;20353;-77
2024/01/13 01:27:40;;;;;;;34.22;21.42;;;;;;;;;;7358594;19;20263;-77
2024/01/13 01:30:05;;;;;;;35.42;22.30;;;;;;;;;;7359177;19;20335;-79
2024/01/13 01:32:30;;;;;;;39.83;23.40;;;;;;;;;;7313393;19;20014;-80
2024/01/13 01:34:56;;;;;;;34.58;21.10;;;;;;;;;;7344917;19;20853;-78
2024/01/13 01:37:23;;;;;;;38.15;22.23;;;;;;;;;;7357133;19;20014;-76
2024/01/13 01:39:48;;;;;;;37.45;21.35;;;;;;;;;;7343391;19;20378;-80
2024/01/13 01:42:13;;;;;;;33.28;20.63;;;;;;;;;;7363653;19;20502;-77
2024/01/13 01:44:38;;;;;;;35.08;20.55;;;;;;;;;;7360747;19;20276;-78
2024/01/13 01:47:04;;;;;;;31.00;18.83;;;;;;;;;;7310731;19;20473;-78
2024/01/13 01:49:29;;;;;;;31.02;19.90;;;;;;;;;;7359433;19;20294;-76
2024/01/13 01:51:54;;;;;;;33.88;19.65;;;;;;;;;;7353881;19;20038;-79
2024/01/13 01:54:20;;;;;;;28.42;18.10;;;;;;;;;;7359725;19;20006;-79
2024/01/13 01:56:45;;;;;;;33.67;19.15;;;;;;;;;;7354288;19;20101;-80
2024/01/13 01:59:10;;;;;;;31.08;19.25;;;;;;;;;;7354415;19;20006;-80
2024/01/13 02:01:36;;;;;;;30.38;18.65;;;;;;;;;;7347632;19;20010;-78
2024/01/13 02:04:01;;;;;;;31.27;18.45;;;;;;;;;;7356536;19;20013;-79
2024/01/13 02:06:26;;;;;;;29.77;18.15;;;;;;;;;;7351272;19;20027;-81
2024/01/13 02:08:51;;;;;;;29.85;18.00;;;;;;;;;;7357714;19;20010;-84
2024/01/13 02:11:17;;;;;;;29.75;17.38;;;;;;;;;;7363479;19;20023;-80
2024/01/13 02:13:43;;;;;;;20.83;13.32;;;;;;;;;;7362015;19;20069;-78
2024/01/13 02:16:08;;;;;;;21.58;14.23;;;;;;;;;;7326381;19;20014;-80
2024/01/13 02:18:34;;;;;;;22.77;13.77;;;;;;;;;;7354550;19;20010;-81
2024/01/13 02:20:59;;;;;;;18.90;11.93;;;;;;;;;;7308169;19;20022;-82
2024/01/13 02:23:24;;;;;;;20.73;12.18;;;;;;;;;;7359471;19;20006;-82
2024/01/13 02:25:49;;;;;;;18.42;11.52;;;;;;;;;;7360257;19;20003;-80
2024/01/13 02:28:15;;;;;;;21.38;13.65;;;;;;;;;;7358541;19;19998;-79
2024/01/13 02:30:40;;;;;;;19.77;12.50;;;;;;;;;;7365396;19;20347;-78
2024/01/13 02:33:06;;;;;;;20.92;12.18;;;;;;;;;;7162821;19;20016;-83
2024/01/13 02:35:31;;;;;;;17.67;10.75;;;;;;;;;;7153527;19;20271;-81
2024/01/13 02:37:56;;;;;;;17.42;11.65;;;;;;;;;;7162540;19;22629;-83
2024/01/13 02:40:21;;;;;;;19.42;12.23;;;;;;;;;;7164628;19;20619;-83
2024/01/13 02:42:46;;;;;;;20.48;11.63;;;;;;;;;;7163333;19;21231;-82
2024/01/13 02:45:11;;;;;;;18.73;11.80;;;;;;;;;;7168382;19;20007;-82
2024/01/13 02:47:44;;;;;;;19.58;11.98;;;;;;;;;;7164657;19;20280;-82
2024/01/13 02:50:09;;;;;;;20.15;12.50;;;;;;;;;;7171893;19;22162;-83
2024/01/13 02:52:34;;;;;;;20.75;12.63;;;;;;;;;;7185877;19;20018;-83
2024/01/13 02:55:00;;;;;;;22.70;13.48;;;;;;;;;;7175174;19;20539;-84
2024/01/13 02:57:26;;;;;;;21.90;13.88;;;;;;;;;;7182488;19;22615;-83
2024/01/13 02:59:51;;;;;;;22.92;13.38;;;;;;;;;;7196400;19;20010;-82
2024/01/13 03:02:16;;;;;;;24.20;14.93;;;;;;;;;;7196216;19;20006;-81
2024/01/13 03:04:42;;;;;;;23.17;13.75;;;;;;;;;;7197724;19;20479;-80
2024/01/13 03:07:07;;;;;;;21.85;14.43;;;;;;;;;;7186199;19;20014;-80
2024/01/13 03:09:32;;;;;;;22.70;13.63;;;;;;;;;;7191296;19;20436;-83
2024/01/13 03:11:57;;;;;;;23.27;13.63;;;;;;;;;;7193008;19;22547;-82
2024/01/13 03:14:23;;;;;;;25.50;13.75;;;;;;;;;;7194392;19;20504;-81
2024/01/13 03:16:48;;;;;;;21.98;13.52;;;;;;;;;;7189365;19;20098;-81
2024/01/13 03:19:13;;;;;;;21.42;13.63;;;;;;;;;;7184608;19;22546;-80
2024/01/13 03:21:39;;;;;;;22.98;12.85;;;;;;;;;;7203100;19;20017;-82
2024/01/13 03:24:04;;;;;;;21.55;13.02;;;;;;;;;;7207211;19;20107;-83
2024/01/13 03:26:29;;;;;;;20.65;12.07;;;;;;;;;;7201558;19;20364;-83
2024/01/13 03:28:54;;;;;;;22.17;12.85;;;;;;;;;;7193342;19;22436;-82
2024/01/13 03:31:19;;;;;;;25.63;13.50;;;;;;;;;;7218147;19;20002;-76
2024/01/13 03:33:45;;;;;;;20.80;12.52;;;;;;;;;;7360600;19;20267;-81
2024/01/13 03:36:10;;;;;;;22.20;12.90;;;;;;;;;;7363114;19;20003;-80
2024/01/13 03:38:35;;;;;;;21.55;12.75;;;;;;;;;;7353574;19;20132;-81
2024/01/13 03:41:01;;;;;;;22.38;13.23;;;;;;;;;;7361469;19;20680;-81
2024/01/13 03:43:26;;;;;;;23.00;13.38;;;;;;;;;;7369252;19;20282;-77
2024/01/13 03:45:51;;;;;;;22.55;13.43;;;;;;;;;;7364727;19;20411;-83
2024/01/13 03:48:16;;;;;;;21.00;12.77;;;;;;;;;;7357585;19;20267;-78
2024/01/13 03:50:41;;;;;;;21.88;13.65;;;;;;;;;;7370780;19;20275;-77
2024/01/13 03:53:07;;;;;;;20.17;13.23;;;;;;;;;;7364748;19;20006;-80
2024/01/13 03:55:33;;;;;;;23.17;13.02;;;;;;;;;;7355626;19;20698;-78
2024/01/13 03:57:58;;;;;;;22.48;14.50;;;;;;;;;;7357001;19;20010;-79
2024/01/13 04:00:23;;;;;;;21.17;13.35;;;;;;;;;;7370034;19;20058;-78
2024/01/13 04:02:49;;;;;;;26.38;14.85;;;;;;;;;;7356758;19;20010;-79
2024/01/13 04:05:14;;;;;;;22.70;14.95;;;;;;;;;;7360098;19;20286;-77
2024/01/13 04:07:39;;;;;;;26.33;15.25;;;;;;;;;;7368410;19;20308;-75
2024/01/13 04:10:05;;;;;;;25.20;15.27;;;;;;;;;;7365728;19;20211;-78
2024/01/13 04:12:30;;;;;;;22.13;14.18;;;;;;;;;;7369554;19;20037;-78
2024/01/13 04:14:55;;;;;;;26.70;15.52;;;;;;;;;;7357877;19;20002;-81
2024/01/13 04:17:20;;;;;;;23.05;14.60;;;;;;;;;;7357522;19;20085;-82
2024/01/13 04:19:45;;;;;;;25.13;15.38;;;;;;;;;;7361974;19;20316;-77
2024/01/13 04:22:10;;;;;;;24.40;16.20;;;;;;;;;;7336340;19;20941;-76
2024/01/13 04:24:36;;;;;;;28.50;15.98;;;;;;;;;;7369599;19;20892;-81
2024/01/13 04:27:01;;;;;;;23.55;15.38;;;;;;;;;;7362971;19;20332;-80
2024/01/13 04:29:26;;;;;;;22.90;15.30;;;;;;;;;;7367997;19;20291;-80
2024/01/13 04:31:51;;;;;;;26.77;15.50;;;;;;;;;;7326974;19;20011;-79
2024/01/13 04:34:16;;;;;;;24.98;14.70;;;;;;;;;;7318967;19;20964;-78
2024/01/13 04:36:42;;;;;;;26.92;16.90;;;;;;;;;;7366461;19;20023;-78
2024/01/13 04:39:07;;;;;;;26.83;16.33;;;;;;;;;;7359321;19;20017;-78
2024/01/13 04:41:32;;;;;;;33.55;20.83;;;;;;;;;;7370118;19;20013;-76
2024/01/13 04:43:57;;;;;;;32.47;21.00;;;;;;;;;;7359827;19;20002;-79
2024/01/13 04:46:22;;;;;;;34.17;20.77;;;;;;;;;;7354992;19;20332;-82
2024/01/13 04:48:47;;;;;;;37.25;21.17;;;;;;;;;;7359300;19;20329;-79
2024/01/13 04:51:13;;;;;;;36.00;21.17;;;;;;;;;;7362756;19;20082;-80
2024/01/13 04:53:38;;;;;;;35.30;21.13;;;;;;;;;;7367521;19;20271;-77
2024/01/13 04:56:03;;;;;;;34.35;21.58;;;;;;;;;;7347714;19;20798;-78
2024/01/13 04:58:28;;;;;;;34.47;21.63;;;;;;;;;;7366069;19;20037;-77
2024/01/13 05:00:54;;;;;;;35.30;21.20;;;;;;;;;;7361574;19;20007;-80
2024/01/13 05:03:19;;;;;;;38.20;22.52;;;;;;;;;;7347398;19;20002;-79
2024/01/13 05:05:44;;;;;;;42.47;22.55;;;;;;;;;;7356097;19;20007;-76
2024/01/13 05:08:09;;;;;;;37.95;23.05;;;;;;;;;;7357564;19;20280;-79
2024/01/13 05:10:35;;;;;;;36.85;23.55;;;;;;;;;;7358628;19;20070;-80
2024/01/13 05:13:00;;;;;;;34.58;22.20;;;;;;;;;;7350956;19;20464;-76
2024/01/13 05:15:25;;;;;;;37.13;22.98;;;;;;;;;;7364036;19;20278;-80
2024/01/13 05:17:50;;;;;;;36.85;22.40;;;;;;;;;;7355627;19;20287;-75
2024/01/13 05:20:16;;;;;;;35.67;22.13;;;;;;;;;;7361967;19;20304;-76
2024/01/13 05:22:41;;;;;;;36.05;23.00;;;;;;;;;;7365058;19;20466;-80
2024/01/13 05:25:07;;;;;;;35.55;22.75;;;;;;;;;;7350662;19;20036;-80
2024/01/13 05:27:33;;;;;;;34.70;22.98;;;;;;;;;;7363219;19;20013;-78
2024/01/13 05:29:58;;;;;;;35.45;22.75;;;;;;;;;;7366606;19;20015;-76
2024/01/13 05:32:23;;;;;;;37.47;23.35;;;;;;;;;;7333978;19;21285;-78
2024/01/13 05:34:48;;;;;;;34.95;22.02;;;;;;;;;;7365838;19;20275;-78
2024/01/13 05:37:13;;;;;;;38.35;24.60;;;;;;;;;;7350376;19;20275;-79
2024/01/13 05:39:38;;;;;;;36.85;23.95;;;;;;;;;;7357213;19;20362;-80
2024/01/13 05:42:03;;;;;;;33.40;22.08;;;;;;;;;;7359734;19;20013;-76
2024/01/13 05:44:29;;;;;;;33.75;23.67;;;;;;;;;;7359913;19;20275;-80
2024/01/13 05:46:54;;;;;;;35.17;23.40;;;;;;;;;;7352433;19;20014;-82
2024/01/13 05:49:19;;;;;;;37.63;22.60;;;;;;;;;;7357454;19;20089;-78
2024/01/13 05:51:44;;;;;;;32.75;22.73;;;;;;;;;;7353919;19;20011;-75
2024/01/13 05:54:10;;;;;;;32.95;22.73;;;;;;;;;;7358605;19;20505;-76
2024/01/13 05:56:38;;;;;;;34.35;23.17;;;;;;;;;;7365919;19;20294;-78
2024/01/13 05:59:03;;;;;;;36.95;22.52;;;;;;;;;;7355675;19;20367;-81
2024/01/13 06:01:28;;;;;;;39.60;24.13;;;;;;;;;;7355394;19;20089;-80
2024/01/13 06:03:53;;;;;;;36.97;23.17;;;;;;;;;;7354964;19;21077;-78
2024/01/13 06:06:18;;;;;;;35.40;22.25;;;;;;;;;;7353740;19;20279;-79
2024/01/13 06:08:44;;;;;;;35.65;22.98;;;;;;;;;;7366063;19;20013;-77
2024/01/13 06:11:09;;;;;;;40.70;24.27;;;;;;;;;;7358824;19;20015;-82
2024/01/13 06:13:34;;;;;;;34.72;22.65;;;;;;;;;;7362477;19;20010;-82
2024/01/13 06:15:59;;;;;;;40.80;24.17;;;;;;;;;;7356553;19;20005;-82
2024/01/13 06:18:25;;;;;;;37.83;23.25;;;;;;;;;;7358009;19;20023;-76
2024/01/13 06:20:50;;;;;;;34.90;22.80;;;;;;;;;;7367606;19;20447;-79
2024/01/13 06:23:15;;;;;;;36.30;24.10;;;;;;;;;;7358850;19;20268;-77
2024/01/13 06:25:40;;;;;;;33.92;23.55;;;;;;;;;;7361866;19;20006;-76
2024/01/13 06:28:05;;;;;;;33.40;23.20;;;;;;;;;;7359676;19;20117;-79
2024/01/13 06:30:30;;;;;;;40.40;24.75;;;;;;;;;;7362925;19;20294;-77
2024/01/13 06:32:56;;;;;;;37.53;24.58;;;;;;;;;;7348436;19;20291;-77
2024/01/13 06:35:21;;;;;;;36.47;24.05;;;;;;;;;;7357995;19;20463;-80
2024/01/13 06:37:46;;;;;;;33.75;23.77;;;;;;;;;;7352775;19;20291;-76
2024/01/13 06:40:12;;;;;;;38.60;24.73;;;;;;;;;;7360140;19;20399;-81
2024/01/13 06:42:37;;;;;;;37.20;24.17;;;;;;;;;;7362040;19;20287;-80
2024/01/13 06:45:03;;;;;;;34.92;24.83;;;;;;;;;;7366159;19;20051;-79
2024/01/13 06:47:29;;;;;;;37.00;24.60;;;;;;;;;;7344851;19;20014;-78
2024/01/13 06:49:54;;;;;;;36.65;24.05;;;;;;;;;;7346377;19;20013;-77
2024/01/13 06:52:19;;;;;;;39.20;23.40;;;;;;;;;;7350077;19;20003;-81
2024/01/13 06:54:44;;;;;;;37.65;24.60;;;;;;;;;;7358882;19;20011;-79
2024/01/13 06:57:10;;;;;;;38.00;25.75;;;;;;;;;;7359972;19;20010;-79
2024/01/13 06:59:35;;;;;;;37.55;24.83;;;;;;;;;;7362642;19;20010;-78
2024/01/13 07:02:00;;;;;;;40.95;26.27;;;;;;;;;;7353222;19;20146;-77
2024/01/13 07:04:27;;;;;;;39.05;24.95;;;;;;;;;;7355739;19;20343;-80
2024/01/13 07:06:52;;;;;;;36.05;24.95;;;;;;;;;;7363759;19;20123;-79
2024/01/13 07:09:17;;;;;;;42.97;26.63;;;;;;;;;;7356594;19;20151;-80
2024/01/13 07:11:46;;;;;;;43.13;25.98;;;;;;;;;;7360481;19;20338;-76
2024/01/13 07:14:11;;;;;;;40.88;27.08;;;;;;;;;;7346931;19;20021;-77
2024/01/13 07:16:36;;;;;;;41.55;26.90;;;;;;;;;;7354608;19;20006;-79
2024/01/13 07:19:01;;;;;;;40.17;25.52;;;;;;;;;;7363987;19;20106;-76
2024/01/13 07:21:28;;;;;;;42.55;26.65;;;;;;;;;;7358044;19;20328;-79
2024/01/13 07:23:54;;;;;;;39.08;25.95;;;;;;;;;;7358323;19;20007;-78
2024/01/13 07:26:19;;;;;;;41.58;26.02;;;;;;;;;;7347215;19;20572;-81
2024/01/13 07:28:44;;;;;;;41.35;26.08;;;;;;;;;;7361676;19;20284;-79
2024/01/13 07:31:10;;;;;;;41.67;26.80;;;;;;;;;;7351449;19;20315;-81
2024/01/13 07:33:35;;;;;;;38.70;26.70;;;;;;;;;;7354737;19;20010;-76
2024/01/13 07:36:01;;;;;;;44.13;27.15;;;;;;;;;;7363917;19;20030;-77
2024/01/13 07:38:26;;;;;;;41.83;26.83;;;;;;;;;;7356035;19;20011;-78
2024/01/13 07:40:51;;;;;;;42.15;26.13;;;;;;;;;;7341041;19;21521;-78
2024/01/13 07:43:16;;;;;;;40.75;26.52;;;;;;;;;;7361143;19;20287;-80
2024/01/13 07:45:41;;;;;;;38.08;24.08;;;;;;;;;;7367568;19;20030;-80
2024/01/13 07:48:07;;;;;;;36.40;23.83;;;;;;;;;;7347658;19;20736;-77
2024/01/13 07:50:32;;;;;;;39.25;25.02;;;;;;;;;;7365020;19;20291;-76
2024/01/13 07:52:57;;;;;;;35.63;23.85;;;;;;;;;;7365045;19;20002;-76
2024/01/13 07:55:23;;;;;;;31.98;22.50;;;;;;;;;;7358336;19;20099;-80
2024/01/13 07:57:48;;;;;;;34.95;22.38;;;;;;;;;;7344838;19;20014;-79
2024/01/13 08:00:13;;;;;;;36.13;22.90;;;;;;;;;;7347799;19;20264;-80
2024/01/13 08:02:38;;;;;;;36.35;23.63;;;;;;;;;;7347654;19;20385;-78
2024/01/13 08:05:04;;;;;;;35.78;22.13;;;;;;;;;;7356149;19;20106;-80
2024/01/13 08:07:29;;;;;;;36.60;22.90;;;;;;;;;;7326614;19;20018;-80
2024/01/13 08:09:54;;;;;;;36.43;22.87;;;;;;;;;;7352085;19;20057;-80
2024/01/13 08:12:19;;;;;;;36.28;22.60;;;;;;;;;;7351873;19;22315;-81
2024/01/13 08:14:44;;;;;;;33.40;21.98;;;;;;;;;;7357551;19;20014;-81
2024/01/13 08:17:09;;;;;;;37.05;23.70;;;;;;;;;;7354815;19;20605;-79
2024/01/13 08:19:38;;;;;;;37.85;23.83;;;;;;;;;;7353069;19;20003;-79
2024/01/13 08:22:03;;;;;;;32.08;20.73;;;;;;;;;;7353349;19;20010;-79
2024/01/13 08:24:29;;;;;;;34.65;21.30;;;;;;;;;;7347106;19;20246;-83
2024/01/13 08:26:54;;;;;;;30.13;20.83;;;;;;;;;;7342030;19;20555;-83
2024/01/13 08:29:19;;;;;;;34.22;20.95;;;;;;;;;;7358646;19;20047;-83
2024/01/13 08:31:48;;;;;;;33.35;22.65;;;;;;;;;;7342261;19;21175;-79
2024/01/13 08:34:13;;;;;;;36.22;23.45;;;;;;;;;;7353516;19;20015;-82
2024/01/13 08:36:38;;;;;;;35.00;24.38;;;;;;;;;;7341951;19;20867;-81
2024/01/13 08:39:03;;;;;;;36.70;22.30;;;;;;;;;;7360394;19;20018;-83
2024/01/13 08:41:31;;;;;;;26.95;17.55;;;;;;;;;;7358523;19;20298;-81
2024/01/13 08:43:56;;;;;;;29.10;18.23;;;;;;;;;;7321330;19;20010;-82
2024/01/13 08:46:21;;;;;;;29.73;18.67;;;;;;;;;;7331205;19;21640;-83
2024/01/13 08:48:46;;;;;;;30.30;18.98;;;;;;;;;;7348648;19;20316;-78
2024/01/13 08:51:11;;;;;;;31.88;20.88;;;;;;;;;;7346802;19;20006;-78
2024/01/13 08:53:36;;;;;;;30.00;19.98;;;;;;;;;;7353975;19;20847;-83
2024/01/13 08:56:02;;;;;;;29.70;19.85;;;;;;;;;;7326299;19;20530;-82
2024/01/13 08:58:27;;;;;;;29.95;19.65;;;;;;;;;;7329766;19;20082;-79
2024/01/13 09:00:54;;;;;;;33.95;20.77;;;;;;;;;;7323432;19;20034;-84
2024/01/13 09:03:20;;;;;;;37.65;21.67;;;;;;;;;;7324364;19;20279;-81
2024/01/13 09:05:45;;;;;;;30.65;20.25;;;;;;;;;;7349100;19;20006;-80
2024/01/13 09:08:10;;;;;;;31.30;18.58;;;;;;;;;;7360286;19;20146;-83
2024/01/13 09:10:35;;;;;;;33.70;20.33;;;;;;;;;;7360139;19;20740;-79
2024/01/13 09:13:01;;;;;;;47.67;28.02;;;;;;;;;;7364677;19;20033;-80
2024/01/13 09:15:26;;;;;;;31.80;20.45;;;;;;;;;;7343713;19;20287;-83
2024/01/13 09:17:51;;;;;;;30.90;19.23;;;;;;;;;;7346849;19;20007;-79
2024/01/13 09:20:16;;;;;;;37.60;24.42;;;;;;;;;;7335111;19;20093;-78
2024/01/13 09:22:41;;;;;;;37.53;22.98;;;;;;;;;;7360350;19;20019;-79
2024/01/13 09:25:07;;;;;;;35.38;20.67;;;;;;;;;;7350784;19;20010;-79
2024/01/13 09:27:32;;;;;;;32.50;21.92;;;;;;;;;;7332627;19;20123;-81
2024/01/13 09:29:58;;;;;;;29.75;21.88;;;;;;;;;;7357186;19;20478;-78
2024/01/13 09:32:23;;;;;;;32.08;22.00;;;;;;;;;;7342551;19;20366;-82
2024/01/13 09:34:48;;;;;;;31.63;21.70;;;;;;;;;;7364119;19;20002;-80
2024/01/13 09:37:15;;;;;;;35.03;21.42;;;;;;;;;;7359951;19;20090;-80
2024/01/13 09:39:40;;;;;;;29.50;20.40;;;;;;;;;;7354625;19;20010;-79
2024/01/13 09:42:05;;;;;;;29.95;21.48;;;;;;;;;;7358786;19;20014;-81
2024/01/13 09:44:32;;;;;;;32.95;22.45;;;;;;;;;;7350871;19;20018;-80
2024/01/13 09:46:58;;;;;;;32.60;23.00;;;;;;;;;;7320886;19;20021;-79
2024/01/13 09:49:24;;;;;;;38.90;23.85;;;;;;;;;;7352865;19;20018;-83
2024/01/13 09:51:50;;;;;;;35.60;23.98;;;;;;;;;;7346378;19;20014;-79
2024/01/13 09:54:23;;;;;;;35.92;24.35;;;;;;;;;;7350274;19;21316;-81
2024/01/13 09:56:48;;;;;;;36.88;24.58;;;;;;;;;;7362987;19;20006;-79
2024/01/13 09:59:14;;;;;;;41.80;27.73;;;;;;;;;;7356702;19;20082;-78
2024/01/13 10:01:39;;;;;;;43.95;27.58;;;;;;;;;;7341013;19;20090;-81
2024/01/13 10:04:04;;;;;;;39.45;27.38;;;;;;;;;;7357699;19;20027;-81
2024/01/13 10:06:34;;;;;;;40.20;27.08;;;;;;;;;;7351973;19;20014;-82
2024/01/13 10:08:59;;;;;;;41.17;27.35;;;;;;;;;;7347027;19;20035;-78
2024/01/13 10:11:24;;;;;;;47.90;28.83;;;;;;;;;;7340946;19;20019;-80
2024/01/13 10:13:59;;;;;;;40.30;29.02;;;;;;;;;;7350220;19;20007;-82
2024/01/13 10:16:25;;;;;;;44.72;30.48;;;;;;;;;;7343247;19;20329;-84
2024/01/13 10:18:52;;;;;;;44.83;28.55;;;;;;;;;;7352277;19;20007;-78
2024/01/13 10:21:17;;;;;;;43.78;30.33;;;;;;;;;;7347372;19;20026;-83
2024/01/13 10:23:42;;;;;;;58.70;36.33;;;;;;;;;;7340341;19;20431;-84
2024/01/13 10:26:09;;;;;;;53.25;37.55;;;;;;;;;;7340678;19;20284;-84
2024/01/13 10:28:34;;;;;;;58.13;38.60;;;;;;;;;;7245119;19;20006;-82
2024/01/13 10:31:00;;;;;;;55.13;38.10;;;;;;;;;;7348636;19;20023;-80
2024/01/13 10:33:26;;;;;;;54.95;37.28;;;;;;;;;;7345513;19;20330;-83
2024/01/13 10:35:51;;;;;;;49.92;33.35;;;;;;;;;;7355296;19;20006;-80
2024/01/13 10:38:16;;;;;;;49.60;33.72;;;;;;;;;;7354589;19;20010;-83
2024/01/13 10:40:42;;;;;;;50.35;34.83;;;;;;;;;;7357479;19;20298;-83
2024/01/13 10:43:09;;;;;;;47.85;32.47;;;;;;;;;;7359467;19;20041;-79
2024/01/13 10:45:40;;;;;;;46.78;31.02;;;;;;;;;;7358713;19;20011;-81
2024/01/13 10:48:16;;;;;;;44.80;30.75;;;;;;;;;;7352118;19;20443;-82
2024/01/13 10:50:42;;;;;;;42.50;28.40;;;;;;;;;;7353699;19;20007;-84
2024/01/13 10:53:15;;;;;;;43.72;29.42;;;;;;;;;;7352381;19;20638;-83
2024/01/13 10:55:42;;;;;;;49.42;31.27;;;;;;;;;;7344932;19;20015;-82
2024/01/13 10:58:08;;;;;;;40.70;28.35;;;;;;;;;;7328389;19;20015;-84
2024/01/13 11:00:34;;;;;;;42.88;30.17;;;;;;;;;;7335844;19;20030;-81
2024/01/13 11:03:00;;;;;;;48.28;30.50;;;;;;;;;;7347553;19;20007;-83
2024/01/13 11:05:26;;;;;;;49.13;30.85;;;;;;;;;;7351808;19;20010;-80
2024/01/13 11:07:52;;;;;;;45.22;29.02;;;;;;;;;;7353393;19;20010;-80
2024/01/13 11:10:20;;;;;;;46.53;29.20;;;;;;;;;;7334997;19;19998;-83
2024/01/13 11:12:58;;;;;;;42.22;27.50;;;;;;;;;;7348779;19;20646;-82
2024/01/13 11:15:31;;;;;;;42.30;26.85;;;;;;;;;;7296710;19;20003;-81
2024/01/13 11:17:59;;;;;;;48.97;29.75;;;;;;;;;;7327771;19;20007;-83
2024/01/13 11:20:25;;;;;;;49.90;30.90;;;;;;;;;;7354216;19;20018;-85
2024/01/13 11:22:58;;;;;;;48.58;31.45;;;;;;;;;;7269675;19;20011;-81
2024/01/13 11:25:24;;;;;;;57.25;35.88;;;;;;;;;;7358337;19;20026;-79
2024/01/13 11:28:12;;;;;;;62.13;36.70;;;;;;;;;;7351833;19;20399;-81
2024/01/13 11:30:38;;;;;;;42.60;29.52;;;;;;;;;;7351443;19;20080;-80
2024/01/13 11:33:09;;;;;;;37.38;27.83;;;;;;;;;;7350275;19;20485;-82
2024/01/13 11:35:35;;;;;;;39.67;27.83;;;;;;;;;;7347034;19;20090;-81
2024/01/13 11:38:01;;;;;;;38.60;27.52;;;;;;;;;;7360738;19;20110;-83
2024/01/13 11:40:26;;;;;;;44.72;30.13;;;;;;;;;;7361949;19;20556;-84
2024/01/13 11:42:59;;;;;;;45.22;31.67;;;;;;;;;;7356941;19;20043;-79
2024/01/13 11:45:35;;;;;;;43.43;31.33;;;;;;;;;;7355594;19;20014;-84
2024/01/13 11:48:20;;;;;;;48.72;31.05;;;;;;;;;;7352283;19;20011;-80
2024/01/13 11:50:50;;;;;;;51.72;30.23;;;;;;;;;;7360232;19;20010;-78
2024/01/13 11:53:35;;;;;;;44.03;29.83;;;;;;;;;;7358897;19;20006;-79
2024/01/13 11:56:00;;;;;;;43.80;29.40;;;;;;;;;;7365364;19;20017;-80
2024/01/13 11:58:25;;;;;;;45.20;30.38;;;;;;;;;;7350923;19;20454;-82
2024/01/13 12:00:50;;;;;;;45.50;30.17;;;;;;;;;;7356774;19;20593;-86
2024/01/13 12:03:15;;;;;;;47.03;31.02;;;;;;;;;;7354440;19;20021;-81
2024/01/13 12:05:41;;;;;;;46.08;29.38;;;;;;;;;;7352701;19;20007;-81
2024/01/13 12:08:06;;;;;;;46.78;30.92;;;;;;;;;;7344413;19;20021;-84
2024/01/13 12:10:40;;;;;;;49.15;31.30;;;;;;;;;;7343729;19;20375;-86
2024/01/13 12:13:13;;;;;;;48.70;31.42;;;;;;;;;;7353088;19;20033;-81
2024/01/13 12:15:41;;;;;;;46.58;32.45;;;;;;;;;;7344247;19;20545;-81
2024/01/13 12:18:06;;;;;;;50.03;31.13;;;;;;;;;;7331065;19;20565;-83
2024/01/13 12:20:31;;;;;;;48.28;32.05;;;;;;;;;;7327450;19;20470;-83
2024/01/13 12:22:56;;;;;;;52.17;34.03;;;;;;;;;;7349395;19;20010;-82
2024/01/13 12:25:21;;;;;;;46.53;32.10;;;;;;;;;;7361364;19;20138;-80
2024/01/13 12:27:47;;;;;;;51.33;33.40;;;;;;;;;;7347889;19;20603;-79
2024/01/13 12:30:17;;;;;;;47.65;32.78;;;;;;;;;;7294739;19;20965;-83
2024/01/13 12:32:42;;;;;;;51.00;32.83;;;;;;;;;;7343036;19;20027;-79
2024/01/13 12:35:07;;;;;;;52.28;34.03;;;;;;;;;;7342717;19;20493;-77
2024/01/13 12:37:33;;;;;;;48.72;32.55;;;;;;;;;;7347309;19;20014;-79
2024/01/13 12:39:58;;;;;;;55.20;34.45;;;;;;;;;;7361043;19;20002;-78
2024/01/13 12:42:23;;;;;;;51.40;33.38;;;;;;;;;;7351939;19;20038;-80
2024/01/13 12:44:49;;;;;;;51.33;33.27;;;;;;;;;;7337135;19;20069;-81
2024/01/13 12:47:16;;;;;;;55.85;35.67;;;;;;;;;;7350565;19;20279;-78
2024/01/13 12:49:41;;;;;;;53.90;33.33;;;;;;;;;;7351712;19;20006;-80
2024/01/13 12:52:08;;;;;;;53.97;34.13;;;;;;;;;;7355942;19;20421;-79
2024/01/13 12:54:33;;;;;;;54.28;32.15;;;;;;;;;;7360235;19;20002;-81
2024/01/13 12:56:58;;;;;;;54.35;34.58;;;;;;;;;;7350077;19;20692;-81
2024/01/13 12:59:24;;;;;;;53.83;33.70;;;;;;;;;;7353841;19;20023;-79
2024/01/13 13:01:49;;;;;;;52.85;35.35;;;;;;;;;;7337192;19;20014;-83
2024/01/13 13:04:14;;;;;;;52.80;33.97;;;;;;;;;;7355993;19;20019;-85
2024/01/13 13:06:40;;;;;;;54.97;35.55;;;;;;;;;;7327672;19;20271;-84
2024/01/13 13:09:09;;;;;;;52.35;34.25;;;;;;;;;;7328887;19;20825;-82
2024/01/13 13:11:35;;;;;;;53.50;34.78;;;;;;;;;;7347725;19;20019;-81
2024/01/13 13:14:00;;;;;;;58.85;36.33;;;;;;;;;;7356458;19;20010;-78
2024/01/13 13:16:25;;;;;;;58.95;37.58;;;;;;;;;;7344118;19;20276;-82
2024/01/13 13:18:50;;;;;;;59.35;35.00;;;;;;;;;;7343024;19;20043;-79
2024/01/13 13:21:15;;;;;;;54.70;35.83;;;;;;;;;;7356319;19;22278;-79
2024/01/13 13:23:42;;;;;;;58.53;36.23;;;;;;;;;;7320535;19;19999;-83
2024/01/13 13:26:08;;;;;;;60.83;36.45;;;;;;;;;;7350636;19;20299;-83
2024/01/13 13:28:35;;;;;;;58.42;37.03;;;;;;;;;;7347641;19;20232;-80
2024/01/13 13:31:00;;;;;;;56.47;36.58;;;;;;;;;;7324361;19;20549;-80
2024/01/13 13:33:26;;;;;;;57.03;35.40;;;;;;;;;;7344886;19;20002;-79
2024/01/13 13:35:51;;;;;;;59.15;36.97;;;;;;;;;;7333108;19;20328;-82
2024/01/13 13:38:16;;;;;;;61.97;38.03;;;;;;;;;;7354697;19;20006;-78
2024/01/13 13:40:41;;;;;;;55.95;36.30;;;;;;;;;;7347779;19;20443;-80
2024/01/13 13:43:07;;;;;;;58.25;36.83;;;;;;;;;;7345908;19;20010;-81
2024/01/13 13:45:32;;;;;;;58.15;37.47;;;;;;;;;;7356006;19;20015;-79
2024/01/13 13:47:58;;;;;;;60.95;38.83;;;;;;;;;;7309221;19;20953;-78
2024/01/13 13:50:23;;;;;;;67.20;40.72;;;;;;;;;;7351451;19;20067;-80
2024/01/13 13:52:49;;;;;;;64.30;40.35;;;;;;;;;;7307980;19;20016;-80
2024/01/13 13:55:14;;;;;;;68.20;41.45;;;;;;;;;;7340314;19;20006;-83
2024/01/13 13:57:39;;;;;;;65.93;39.75;;;;;;;;;;7327282;19;20011;-82
2024/01/13 14:00:07;;;;;;;66.50;40.53;;;;;;;;;;7339976;19;20142;-80
2024/01/13 14:02:32;;;;;;;74.25;44.78;;;;;;;;;;7328933;19;20735;-84
2024/01/13 14:04:57;;;;;;;71.80;42.95;;;;;;;;;;7279882;19;20019;-79
2024/01/13 14:07:22;;;;;;;75.72;44.17;;;;;;;;;;7333260;19;21199;-79